Time;durP1;ratioP1;P1;durP2;ratioP2;P2;SDS_P1;SDS_P2;PMS_P1;PMS_P2;Temp;Humidity;BMP_temperature;BMP_pressure;BME280_temperature;BME280_humidity;BME280_pressure;Samples;Min_cycle;Max_cycle;Signal;HPM_P1;HPM_P2
2023/07/10 00:01:45;;;;;;;0.70;0.30;;;18.80;91.80;;;;;;5012289;28;20128;-73
2023/07/10 00:04:16;;;;;;;0.00;0.00;;;18.90;91.60;;;;;;5011778;28;20180;-73
2023/07/10 00:06:42;;;;;;;;;;;18.90;91.60;;;;;;5012673;28;20049;-73
2023/07/10 00:09:07;;;;;;;0.00;0.00;;;18.90;91.40;;;;;;5011515;28;19921;-73
2023/07/10 00:11:33;;;;;;;0.00;0.00;;;18.90;91.30;;;;;;5011861;28;20045;-73
2023/07/10 00:13:59;;;;;;;0.00;0.00;;;18.80;91.20;;;;;;5011504;28;20045;-73
2023/07/10 00:16:26;;;;;;;0.00;0.00;;;18.90;91.00;;;;;;5011635;28;20145;-73
2023/07/10 00:18:52;;;;;;;0.00;0.00;;;18.90;90.90;;;;;;5012156;28;20050;-73
2023/07/10 00:21:18;;;;;;;0.13;0.13;;;18.80;91.20;;;;;;5012128;28;20099;-73
2023/07/10 00:23:44;;;;;;;0.00;0.00;;;18.90;91.10;;;;;;5011887;28;20473;-74
2023/07/10 00:26:22;;;;;;;0.00;0.00;;;18.90;91.20;;;;;;5010362;28;20049;-73
2023/07/10 00:28:56;;;;;;;0.00;0.00;;;18.80;91.20;;;;;;5011607;28;20045;-73
2023/07/10 00:31:24;;;;;;;0.00;0.00;;;18.90;91.10;;;;;;4995119;28;20058;-73
2023/07/10 00:33:51;;;;;;;0.00;0.00;;;18.90;91.00;;;;;;5011417;28;20406;-73
2023/07/10 00:36:31;;;;;;;0.00;0.00;;;18.90;90.80;;;;;;4988661;28;20057;-73
2023/07/10 00:39:04;;;;;;;0.00;0.00;;;18.90;90.70;;;;;;5011365;28;20410;-73
2023/07/10 00:41:34;;;;;;;0.10;0.10;;;19.00;90.60;;;;;;5010928;28;20103;-73
2023/07/10 00:44:01;;;;;;;0.00;0.00;;;19.00;90.60;;;;;;4993914;28;20046;-73
2023/07/10 00:46:38;;;;;;;0.00;0.00;;;19.00;90.60;;;;;;5010938;28;20046;-73
2023/07/10 00:49:20;;;;;;;0.08;0.08;;;19.00;90.60;;;;;;5010965;28;20159;-73
2023/07/10 00:51:57;;;;;;;0.00;0.00;;;19.00;90.60;;;;;;5011717;28;20054;-73
2023/07/10 00:54:33;;;;;;;0.00;0.00;;;19.00;90.50;;;;;;5011615;28;20053;-73
2023/07/10 00:57:01;;;;;;;0.00;0.00;;;19.00;90.50;;;;;;5011589;28;20157;-73
2023/07/10 00:59:28;;;;;;;0.00;0.00;;;19.00;90.50;;;;;;5012040;28;20045;-73
2023/07/10 01:02:17;;;;;;;0.00;0.00;;;19.00;90.50;;;;;;5012069;28;20057;-73
2023/07/10 01:04:47;;;;;;;0.15;0.10;;;18.90;90.40;;;;;;5011870;28;20052;-73
2023/07/10 01:07:15;;;;;;;0.00;0.00;;;18.90;90.30;;;;;;5011216;28;20033;-73
2023/07/10 01:09:46;;;;;;;1.38;0.63;;;18.90;90.20;;;;;;5011909;28;20569;-73
2023/07/10 01:12:12;;;;;;;0.00;0.00;;;19.00;90.10;;;;;;5011428;28;20046;-73
2023/07/10 01:14:38;;;;;;;0.00;0.00;;;18.90;90.20;;;;;;5011672;28;20464;-73
2023/07/10 01:17:05;;;;;;;0.38;0.38;;;18.90;90.20;;;;;;5011571;28;20057;-73
2023/07/10 01:19:33;;;;;;;0.00;0.00;;;18.90;90.10;;;;;;5011040;28;20081;-73
2023/07/10 01:21:59;;;;;;;2.28;0.73;;;18.90;90.20;;;;;;4992600;28;20049;-73
2023/07/10 01:24:25;;;;;;;0.00;0.00;;;18.90;90.20;;;;;;5011489;28;20831;-73
2023/07/10 01:26:51;;;;;;;0.00;0.00;;;18.80;90.20;;;;;;4993320;28;20038;-73
2023/07/10 01:29:28;;;;;;;0.00;0.00;;;18.80;90.10;;;;;;5011072;28;20049;-73
2023/07/10 01:31:55;;;;;;;0.00;0.00;;;18.80;90.10;;;;;;5011416;28;20107;-73
2023/07/10 01:34:26;;;;;;;0.00;0.00;;;18.80;90.10;;;;;;5010434;28;20077;-73
2023/07/10 01:36:52;;;;;;;;;;;18.80;90.10;;;;;;5011228;28;20089;-73
2023/07/10 01:39:40;;;;;;;0.00;0.00;;;18.90;90.10;;;;;;5010757;28;19921;-73
2023/07/10 01:42:06;;;;;;;0.00;0.00;;;18.80;90.10;;;;;;5011056;28;20046;-73
2023/07/10 01:44:35;;;;;;;0.00;0.00;;;18.80;90.20;;;;;;5011033;28;20132;-73
2023/07/10 01:47:03;;;;;;;0.00;0.00;;;18.80;90.40;;;;;;4993224;28;20045;-73
2023/07/10 01:49:39;;;;;;;0.00;0.00;;;18.80;90.70;;;;;;4992673;28;20046;-73
2023/07/10 01:52:07;;;;;;;0.00;0.00;;;18.70;90.60;;;;;;5010796;28;20057;-73
2023/07/10 01:54:33;;;;;;;0.00;0.00;;;18.70;90.50;;;;;;5010291;28;20046;-73
2023/07/10 01:56:58;;;;;;;0.00;0.00;;;18.70;90.50;;;;;;5011085;28;20192;-73
2023/07/10 01:59:24;;;;;;;0.00;0.00;;;18.70;90.40;;;;;;5010737;28;20152;-73
2023/07/10 02:01:50;;;;;;;0.00;0.00;;;18.70;90.30;;;;;;5010622;28;20042;-73
2023/07/10 02:04:16;;;;;;;0.00;0.00;;;18.70;90.20;;;;;;4992933;28;20061;-73
2023/07/10 02:06:41;;;;;;;0.00;0.00;;;18.80;90.20;;;;;;5010505;28;20042;-73
2023/07/10 02:09:07;;;;;;;0.05;0.05;;;18.80;90.00;;;;;;5009961;28;20041;-73
2023/07/10 02:11:37;;;;;;;0.00;0.00;;;18.80;90.00;;;;;;5010253;28;20042;-73
2023/07/10 02:14:04;;;;;;;0.10;0.10;;;18.70;89.90;;;;;;5009883;28;20061;-73
2023/07/10 02:16:29;;;;;;;0.00;0.00;;;18.70;90.00;;;;;;5009602;28;20433;-73
2023/07/10 02:18:55;;;;;;;0.00;0.00;;;18.60;90.10;;;;;;5010307;28;20045;-73
2023/07/10 02:21:21;;;;;;;0.05;0.05;;;18.60;90.50;;;;;;5010022;28;20041;-73
2023/07/10 02:23:47;;;;;;;0.00;0.00;;;18.40;90.70;;;;;;5009934;28;20100;-73
2023/07/10 02:26:14;;;;;;;0.00;0.00;;;18.40;90.90;;;;;;5010173;28;20049;-73
2023/07/10 02:28:40;;;;;;;0.22;0.22;;;18.30;90.80;;;;;;5009647;28;20041;-73
2023/07/10 02:31:06;;;;;;;0.00;0.00;;;18.30;90.70;;;;;;5010227;28;20049;-73
2023/07/10 02:33:33;;;;;;;0.82;0.68;;;18.20;90.60;;;;;;5009410;28;20046;-73
2023/07/10 02:35:59;;;;;;;0.00;0.00;;;18.20;90.50;;;;;;4992878;28;20049;-73
2023/07/10 02:38:24;;;;;;;0.00;0.00;;;18.10;90.40;;;;;;5009244;28;20048;-73
2023/07/10 02:40:50;;;;;;;0.00;0.00;;;18.10;90.10;;;;;;5009862;28;20133;-73
2023/07/10 02:43:16;;;;;;;0.00;0.00;;;18.00;90.00;;;;;;5009935;28;20478;-73
2023/07/10 02:45:41;;;;;;;0.00;0.00;;;18.00;89.80;;;;;;5009754;28;20137;-73
2023/07/10 02:48:07;;;;;;;0.10;0.10;;;17.90;89.60;;;;;;5009487;28;20057;-73
2023/07/10 02:50:32;;;;;;;0.00;0.00;;;17.90;89.50;;;;;;5011488;28;20124;-73
2023/07/10 02:52:58;;;;;;;0.00;0.00;;;17.80;89.00;;;;;;5014271;28;20461;-73
2023/07/10 02:55:24;;;;;;;0.00;0.00;;;17.80;89.00;;;;;;5014142;28;20053;-73
2023/07/10 02:57:49;;;;;;;0.00;0.00;;;17.70;88.80;;;;;;5013259;28;20049;-73
2023/07/10 03:00:15;;;;;;;0.00;0.00;;;17.70;88.80;;;;;;5013755;28;20129;-73
2023/07/10 03:02:41;;;;;;;0.00;0.00;;;17.70;88.70;;;;;;5013361;28;20042;-73
2023/07/10 03:05:08;;;;;;;0.00;0.00;;;17.60;88.60;;;;;;5013351;28;20521;-72
2023/07/10 03:07:33;;;;;;;0.00;0.00;;;17.60;88.50;;;;;;5013158;28;20052;-73
2023/07/10 03:09:59;;;;;;;0.00;0.00;;;17.60;88.40;;;;;;5012676;28;20042;-72
2023/07/10 03:12:26;;;;;;;0.00;0.00;;;17.60;88.30;;;;;;5012999;28;20058;-73
2023/07/10 03:14:51;;;;;;;0.00;0.00;;;17.60;88.20;;;;;;5012847;28;20052;-73
2023/07/10 03:17:18;;;;;;;0.00;0.00;;;17.50;88.10;;;;;;5012723;28;20121;-73
2023/07/10 03:19:44;;;;;;;0.00;0.00;;;17.50;88.00;;;;;;5012712;28;20039;-73
2023/07/10 03:22:09;;;;;;;0.00;0.00;;;17.50;88.00;;;;;;5013106;28;20590;-73
2023/07/10 03:24:35;;;;;;;0.00;0.00;;;17.50;88.00;;;;;;5012788;28;20125;-72
2023/07/10 03:27:01;;;;;;;0.00;0.00;;;17.50;88.00;;;;;;4994512;28;20557;-73
2023/07/10 03:29:27;;;;;;;0.00;0.00;;;17.50;87.70;;;;;;5012553;28;20438;-72
2023/07/10 03:31:52;;;;;;;0.00;0.00;;;17.50;87.90;;;;;;5012559;28;20061;-73
2023/07/10 03:34:18;;;;;;;0.00;0.00;;;17.50;87.90;;;;;;5012693;28;20077;-73
2023/07/10 03:36:44;;;;;;;0.00;0.00;;;17.50;87.90;;;;;;5012484;28;20100;-73
2023/07/10 03:39:12;;;;;;;0.00;0.00;;;17.60;87.90;;;;;;5011780;28;20042;-73
2023/07/10 03:41:37;;;;;;;0.00;0.00;;;17.50;87.80;;;;;;5012484;28;20045;-73
2023/07/10 03:44:03;;;;;;;0.10;0.10;;;17.50;87.80;;;;;;5012256;28;20037;-73
2023/07/10 03:46:29;;;;;;;0.00;0.00;;;17.60;87.70;;;;;;5011551;28;20069;-73
2023/07/10 03:48:55;;;;;;;0.00;0.00;;;17.60;87.70;;;;;;4994345;28;20030;-73
2023/07/10 03:51:21;;;;;;;0.00;0.00;;;17.60;87.60;;;;;;5011826;28;20054;-73
2023/07/10 03:53:47;;;;;;;0.00;0.00;;;17.60;87.60;;;;;;4994606;28;20444;-73
2023/07/10 03:56:12;;;;;;;0.00;0.00;;;17.70;87.60;;;;;;5012387;28;20052;-72
2023/07/10 03:58:40;;;;;;;0.00;0.00;;;17.60;87.60;;;;;;5011809;28;20042;-73
2023/07/10 04:01:06;;;;;;;0.00;0.00;;;17.70;87.60;;;;;;5010019;28;20041;-73
2023/07/10 04:03:34;;;;;;;0.00;0.00;;;17.70;87.50;;;;;;5011904;28;20052;-73
2023/07/10 04:06:01;;;;;;;0.00;0.00;;;17.60;87.60;;;;;;5011633;28;20053;-73
2023/07/10 04:08:46;;;;;;;0.00;0.00;;;17.70;87.60;;;;;;4993911;28;20042;-72
2023/07/10 04:11:20;;;;;;;0.00;0.00;;;17.70;87.60;;;;;;5011332;28;20042;-73
2023/07/10 04:13:47;;;;;;;0.00;0.00;;;17.70;87.80;;;;;;5011644;28;20534;-72
2023/07/10 04:16:15;;;;;;;0.00;0.00;;;17.70;87.70;;;;;;5011733;28;20093;-72
2023/07/10 04:18:42;;;;;;;0.00;0.00;;;17.70;87.60;;;;;;4994297;28;20084;-73
2023/07/10 04:21:12;;;;;;;0.00;0.00;;;17.70;87.60;;;;;;4993570;28;20521;-73
2023/07/10 04:23:38;;;;;;;0.00;0.00;;;17.70;87.80;;;;;;5011941;28;20137;-73
2023/07/10 04:26:05;;;;;;;0.00;0.00;;;17.80;87.70;;;;;;5011388;28;20138;-73
2023/07/10 04:28:30;;;;;;;0.00;0.00;;;17.70;87.80;;;;;;5011633;28;20088;-73
2023/07/10 04:30:56;;;;;;;0.00;0.00;;;17.80;88.00;;;;;;5011073;28;20429;-72
2023/07/10 04:33:22;;;;;;;0.00;0.00;;;17.70;88.00;;;;;;5010785;28;20037;-72
2023/07/10 04:35:55;;;;;;;0.00;0.00;;;17.80;87.90;;;;;;5011080;28;20073;-73
2023/07/10 04:38:27;;;;;;;0.00;0.00;;;17.80;87.90;;;;;;5011115;28;20042;-72
2023/07/10 04:40:53;;;;;;;0.00;0.00;;;17.80;88.00;;;;;;5011503;28;20069;-72
2023/07/10 04:43:19;;;;;;;0.00;0.00;;;17.80;87.80;;;;;;5010991;28;20052;-73
2023/07/10 04:45:44;;;;;;;0.00;0.00;;;17.80;87.90;;;;;;5011372;28;20046;-72
2023/07/10 04:48:10;;;;;;;0.10;0.10;;;17.90;87.90;;;;;;4993356;28;20057;-73
2023/07/10 04:50:35;;;;;;;0.00;0.00;;;17.90;88.00;;;;;;5010580;28;20077;-73
2023/07/10 04:53:01;;;;;;;0.00;0.00;;;17.90;87.90;;;;;;5010831;28;20413;-73
2023/07/10 04:55:26;;;;;;;0.00;0.00;;;17.90;87.80;;;;;;5010803;28;20049;-73
2023/07/10 04:57:52;;;;;;;0.00;0.00;;;18.00;87.80;;;;;;5011031;28;20093;-72
2023/07/10 05:00:18;;;;;;;0.00;0.00;;;18.00;87.80;;;;;;4976970;28;20395;-72
2023/07/10 05:02:43;;;;;;;0.00;0.00;;;18.00;87.80;;;;;;4993588;28;20050;-73
2023/07/10 05:05:09;;;;;;;0.00;0.00;;;18.00;87.80;;;;;;5010184;28;20049;-73
2023/07/10 05:07:35;;;;;;;0.00;0.00;;;18.10;87.90;;;;;;5006831;28;20100;-72
2023/07/10 05:10:00;;;;;;;0.00;0.00;;;18.10;88.00;;;;;;5010398;28;20058;-72
2023/07/10 05:12:26;;;;;;;0.00;0.00;;;18.10;88.10;;;;;;5004310;28;20061;-72
2023/07/10 05:14:52;;;;;;;2.92;0.60;;;18.10;88.00;;;;;;5008758;28;20391;-72
2023/07/10 05:17:18;;;;;;;0.00;0.00;;;18.10;87.90;;;;;;5006353;28;20499;-73
2023/07/10 05:19:43;;;;;;;0.00;0.00;;;18.10;88.00;;;;;;5004582;28;20502;-73
2023/07/10 05:22:09;;;;;;;0.00;0.00;;;18.10;87.80;;;;;;5004651;28;20104;-73
2023/07/10 05:24:34;;;;;;;0.00;0.00;;;18.10;87.90;;;;;;5000235;28;20721;-74
2023/07/10 05:27:00;;;;;;;0.00;0.00;;;18.10;87.80;;;;;;4990810;28;20061;-76
2023/07/10 05:29:26;;;;;;;0.00;0.00;;;18.10;88.00;;;;;;5008950;28;20050;-71
2023/07/10 05:31:51;;;;;;;0.00;0.00;;;18.10;88.10;;;;;;5008790;28;20414;-75
2023/07/10 05:34:22;;;;;;;0.00;0.00;;;18.10;88.00;;;;;;5007836;28;20038;-75
2023/07/10 05:36:48;;;;;;;0.00;0.00;;;18.10;88.10;;;;;;5009544;28;20062;-75
2023/07/10 05:39:13;;;;;;;0.00;0.00;;;18.20;88.20;;;;;;5008847;28;20426;-74
2023/07/10 05:41:39;;;;;;;0.00;0.00;;;18.10;88.30;;;;;;4990990;28;20396;-74
2023/07/10 05:44:06;;;;;;;0.00;0.00;;;18.20;88.20;;;;;;5008791;28;20061;-74
2023/07/10 05:46:32;;;;;;;0.00;0.00;;;18.20;88.30;;;;;;4990773;28;20073;-74
2023/07/10 05:48:58;;;;;;;0.00;0.00;;;18.20;88.20;;;;;;5008504;28;20103;-74
2023/07/10 05:51:23;;;;;;;0.00;0.00;;;18.20;88.30;;;;;;5007854;28;20062;-74
2023/07/10 05:53:49;;;;;;;0.00;0.00;;;18.20;88.30;;;;;;4990857;28;20053;-74
2023/07/10 05:56:15;;;;;;;0.00;0.00;;;18.30;88.30;;;;;;4991684;28;20486;-74
2023/07/10 05:58:41;;;;;;;0.00;0.00;;;18.40;88.20;;;;;;4990154;28;20056;-72
2023/07/10 06:01:08;;;;;;;0.00;0.00;;;18.40;88.30;;;;;;5006971;28;20065;-75
2023/07/10 06:03:34;;;;;;;0.00;0.00;;;18.50;88.10;;;;;;5006107;28;20034;-74
2023/07/10 06:06:02;;;;;;;0.00;0.00;;;18.50;88.30;;;;;;4990042;28;20065;-74
2023/07/10 06:08:29;;;;;;;0.00;0.00;;;18.50;88.10;;;;;;4990849;28;20061;-74
2023/07/10 06:10:56;;;;;;;0.00;0.00;;;18.50;87.90;;;;;;4987869;28;20402;-73
2023/07/10 06:13:22;;;;;;;0.00;0.00;;;18.60;87.70;;;;;;5008296;28;20517;-73
2023/07/10 06:15:51;;;;;;;0.00;0.00;;;18.60;87.60;;;;;;5007848;28;20050;-73
2023/07/10 06:18:17;;;;;;;0.00;0.00;;;18.60;87.30;;;;;;5008389;28;20512;-73
2023/07/10 06:20:43;;;;;;;0.00;0.00;;;18.80;87.20;;;;;;5008171;28;20183;-75
2023/07/10 06:23:09;;;;;;;0.00;0.00;;;18.70;86.80;;;;;;5005556;28;20141;-73
2023/07/10 06:25:34;;;;;;;0.00;0.00;;;18.80;86.50;;;;;;4990554;28;20049;-72
2023/07/10 06:28:00;;;;;;;0.00;0.00;;;18.90;86.40;;;;;;4998616;28;20054;-73
2023/07/10 06:30:26;;;;;;;0.00;0.00;;;18.90;86.40;;;;;;5000282;28;20053;-73
2023/07/10 06:32:51;;;;;;;0.70;0.70;;;18.90;86.50;;;;;;5007901;28;20057;-73
2023/07/10 06:35:17;;;;;;;0.00;0.00;;;19.00;86.10;;;;;;5008491;28;20517;-73
2023/07/10 06:37:44;;;;;;;0.00;0.00;;;19.00;86.20;;;;;;5005909;28;20050;-74
2023/07/10 06:40:13;;;;;;;0.00;0.00;;;19.00;86.00;;;;;;5001733;28;20050;-73
2023/07/10 06:42:40;;;;;;;0.00;0.00;;;19.10;86.00;;;;;;5006005;28;20054;-74
2023/07/10 06:45:06;;;;;;;0.00;0.00;;;19.10;86.00;;;;;;5003177;28;20518;-74
2023/07/10 06:47:37;;;;;;;0.10;0.10;;;19.20;85.80;;;;;;4989146;28;20097;-73
2023/07/10 06:50:03;;;;;;;0.00;0.00;;;19.20;85.40;;;;;;5003669;28;20060;-73
2023/07/10 06:52:32;;;;;;;1.17;0.70;;;19.20;85.00;;;;;;5007760;28;20054;-73
2023/07/10 06:54:58;;;;;;;0.00;0.00;;;19.30;85.00;;;;;;4990643;28;20050;-72
2023/07/10 06:57:23;;;;;;;0.00;0.00;;;19.30;84.70;;;;;;5009012;28;20419;-72
2023/07/10 06:59:49;;;;;;;0.00;0.00;;;19.30;84.70;;;;;;5006386;28;20049;-72
2023/07/10 07:02:15;;;;;;;0.00;0.00;;;19.30;84.80;;;;;;5003503;28;20900;-73
2023/07/10 07:04:41;;;;;;;0.08;0.08;;;19.40;84.70;;;;;;4984852;28;20053;-73
2023/07/10 07:07:07;;;;;;;0.00;0.00;;;19.40;84.60;;;;;;4991918;28;20053;-74
2023/07/10 07:09:33;;;;;;;0.00;0.00;;;19.50;84.80;;;;;;5013147;28;20128;-73
2023/07/10 07:11:58;;;;;;;0.00;0.00;;;19.50;84.40;;;;;;5012024;28;20173;-72
2023/07/10 07:14:25;;;;;;;0.00;0.00;;;19.40;84.30;;;;;;5017113;28;20056;-73
2023/07/10 07:16:50;;;;;;;0.00;0.00;;;19.50;84.60;;;;;;4998790;28;20556;-72
2023/07/10 07:19:16;;;;;;;0.00;0.00;;;19.50;85.10;;;;;;5014818;28;20041;-72
2023/07/10 07:21:41;;;;;;;0.00;0.00;;;19.60;85.20;;;;;;4979481;28;20029;-73
2023/07/10 07:24:07;;;;;;;0.00;0.00;;;19.70;85.30;;;;;;5011374;28;20061;-73
2023/07/10 07:26:33;;;;;;;0.00;0.00;;;19.80;84.60;;;;;;5014007;28;20066;-73
2023/07/10 07:28:58;;;;;;;0.00;0.00;;;19.80;84.60;;;;;;5014774;28;20035;-73
2023/07/10 07:31:24;;;;;;;0.00;0.00;;;19.80;84.40;;;;;;5000203;28;20558;-73
2023/07/10 07:33:51;;;;;;;0.00;0.00;;;19.80;84.80;;;;;;5017289;28;20060;-73
2023/07/10 07:36:17;;;;;;;8.57;0.65;;;19.80;84.70;;;;;;5016467;28;20501;-73
2023/07/10 07:38:42;;;;;;;0.00;0.00;;;19.90;84.40;;;;;;5020624;28;20054;-73
2023/07/10 07:41:08;;;;;;;0.00;0.00;;;19.90;84.00;;;;;;5027109;28;20034;-72
2023/07/10 07:43:34;;;;;;;0.00;0.00;;;19.90;84.30;;;;;;5022816;28;20133;-68
2023/07/10 07:45:59;;;;;;;0.00;0.00;;;20.00;84.60;;;;;;5028874;28;20048;-72
2023/07/10 07:48:25;;;;;;;0.30;0.30;;;20.10;84.40;;;;;;5028372;28;20049;-72
2023/07/10 07:51:00;;;;;;;0.43;0.43;;;20.10;84.00;;;;;;5026852;28;20058;-72
2023/07/10 07:53:28;;;;;;;0.00;0.00;;;20.10;83.60;;;;;;5007629;28;20050;-72
2023/07/10 07:55:54;;;;;;;0.85;0.52;;;20.10;83.70;;;;;;5018720;28;20044;-69
2023/07/10 07:58:19;;;;;;;1.20;0.32;;;20.20;83.90;;;;;;5021607;28;20046;-71
2023/07/10 08:00:45;;;;;;;0.10;0.10;;;20.20;83.70;;;;;;5019361;28;20042;-71
2023/07/10 08:03:11;;;;;;;0.00;0.00;;;20.30;83.60;;;;;;5023856;28;20049;-71
2023/07/10 08:05:37;;;;;;;0.05;0.05;;;20.30;83.60;;;;;;5019124;28;20553;-71
2023/07/10 08:08:09;;;;;;;0.03;0.03;;;20.40;83.30;;;;;;5019637;28;20075;-71
2023/07/10 08:10:36;;;;;;;0.00;0.00;;;20.40;83.30;;;;;;5015779;28;20490;-71
2023/07/10 08:13:06;;;;;;;0.05;0.05;;;20.50;83.30;;;;;;5021265;28;20391;-71
2023/07/10 08:15:32;;;;;;;0.00;0.00;;;20.50;83.00;;;;;;5018107;28;20045;-71
2023/07/10 08:17:58;;;;;;;0.10;0.10;;;20.50;83.20;;;;;;5020998;28;20045;-71
2023/07/10 08:20:24;;;;;;;0.00;0.00;;;20.50;82.90;;;;;;5018929;28;20034;-72
2023/07/10 08:22:49;;;;;;;0.47;0.45;;;20.60;82.70;;;;;;5012835;28;20049;-71
2023/07/10 08:25:15;;;;;;;0.00;0.00;;;20.70;82.80;;;;;;5017418;28;20448;-72
2023/07/10 08:27:43;;;;;;;0.00;0.00;;;20.70;82.00;;;;;;5018367;28;20507;-72
2023/07/10 08:30:10;;;;;;;1.13;1.02;;;20.80;82.00;;;;;;5016034;28;20045;-72
2023/07/10 08:32:35;;;;;;;0.00;0.00;;;20.90;81.90;;;;;;5018931;28;20441;-72
2023/07/10 08:35:02;;;;;;;0.00;0.00;;;20.80;81.50;;;;;;5019771;28;20041;-71
2023/07/10 08:37:28;;;;;;;0.10;0.10;;;20.90;82.00;;;;;;5013957;28;20057;-73
2023/07/10 08:39:56;;;;;;;0.00;0.00;;;20.90;80.60;;;;;;5018150;28;20046;-73
2023/07/10 08:42:24;;;;;;;0.08;0.08;;;20.90;81.10;;;;;;5017072;28;20060;-73
2023/07/10 08:44:53;;;;;;;0.00;0.00;;;20.80;80.00;;;;;;5017899;28;20049;-73
2023/07/10 08:47:23;;;;;;;0.08;0.08;;;20.90;80.60;;;;;;5016639;28;20549;-71
2023/07/10 08:50:06;;;;;;;0.90;0.43;;;20.90;80.20;;;;;;5018654;28;20087;-71
2023/07/10 08:52:57;;;;;;;1.88;1.25;;;21.00;80.00;;;;;;5016921;28;20188;-72
2023/07/10 08:55:48;;;;;;;0.00;0.00;;;21.00;80.50;;;;;;5017257;28;20057;-72
2023/07/10 08:58:29;;;;;;;0.00;0.00;;;21.10;80.40;;;;;;5000420;28;20498;-72
2023/07/10 09:01:01;;;;;;;0.00;0.00;;;21.10;80.30;;;;;;5018064;28;20135;-72
2023/07/10 09:03:40;;;;;;;0.70;0.70;;;21.20;80.30;;;;;;5017511;28;20045;-72
2023/07/10 09:06:27;;;;;;;0.00;0.00;;;21.20;80.10;;;;;;5018223;28;20055;-72
2023/07/10 09:08:54;;;;;;;0.17;0.10;;;21.30;79.00;;;;;;5024139;28;20054;-71
2023/07/10 09:11:20;;;;;;;0.00;0.00;;;21.40;79.00;;;;;;5019802;28;20041;-72
2023/07/10 09:13:58;;;;;;;0.00;0.00;;;21.50;79.10;;;;;;5017771;28;20544;-72
2023/07/10 09:16:26;;;;;;;0.00;0.00;;;21.50;78.80;;;;;;5017861;28;20049;-68
2023/07/10 09:19:12;;;;;;;0.68;0.25;;;21.50;79.00;;;;;;5015782;28;20125;-71
2023/07/10 09:21:41;;;;;;;0.00;0.00;;;21.50;78.80;;;;;;5016166;28;20510;-71
2023/07/10 09:24:22;;;;;;;0.00;0.00;;;21.40;78.20;;;;;;5017489;28;20037;-70
2023/07/10 09:26:48;;;;;;;0.00;0.00;;;21.30;78.70;;;;;;5017119;28;20054;-70
2023/07/10 09:29:14;;;;;;;0.00;0.00;;;21.50;78.90;;;;;;5013762;28;20084;-72
2023/07/10 09:31:50;;;;;;;0.05;0.05;;;21.50;78.70;;;;;;5016711;28;20161;-72
2023/07/10 09:34:20;;;;;;;0.05;0.05;;;21.60;78.80;;;;;;5016912;28;20054;-71
2023/07/10 09:36:51;;;;;;;5.25;0.65;;;21.60;78.10;;;;;;5016166;28;20489;-71
2023/07/10 09:39:17;;;;;;;0.00;0.00;;;21.60;77.20;;;;;;5017168;28;20489;-71
2023/07/10 09:41:43;;;;;;;0.85;0.85;;;21.50;77.60;;;;;;4983435;28;20057;-73
2023/07/10 09:44:18;;;;;;;0.00;0.00;;;21.50;77.90;;;;;;5017507;28;20137;-70
2023/07/10 09:46:44;;;;;;;3.50;2.20;;;21.50;77.30;;;;;;5017255;28;20046;-73
2023/07/10 09:49:14;;;;;;;0.10;0.10;;;21.40;77.70;;;;;;5017459;28;20098;-78
2023/07/10 09:52:14;;;;;;;0.00;0.00;;;21.40;77.90;;;;;;5016649;28;20081;-72
2023/07/10 09:54:40;;;;;;;0.00;0.00;;;21.40;77.20;;;;;;5000064;28;20049;-69
2023/07/10 09:57:15;;;;;;;0.00;0.00;;;21.40;77.60;;;;;;5017069;28;20067;-68
2023/07/10 09:59:54;;;;;;;0.75;0.52;;;21.40;77.50;;;;;;5017143;28;20076;-71
2023/07/10 10:02:41;;;;;;;0.00;0.00;;;21.50;77.20;;;;;;5015898;28;20042;-72
2023/07/10 10:05:16;;;;;;;0.00;0.00;;;21.60;77.40;;;;;;5017933;28;20041;-72
2023/07/10 10:07:49;;;;;;;0.00;0.00;;;21.80;76.90;;;;;;5011585;28;20108;-72
2023/07/10 10:10:37;;;;;;;0.00;0.00;;;21.80;77.00;;;;;;5017139;28;20540;-71
2023/07/10 10:13:22;;;;;;;1.85;0.52;;;21.80;77.20;;;;;;5014750;28;20731;-68
2023/07/10 10:16:06;;;;;;;0.00;0.00;;;21.80;76.60;;;;;;5017558;28;20087;-69
2023/07/10 10:18:53;;;;;;;0.00;0.00;;;21.90;77.00;;;;;;5016721;28;20044;-70
2023/07/10 10:21:20;;;;;;;0.05;0.05;;;22.00;76.30;;;;;;5017325;28;20084;-66
2023/07/10 10:23:48;;;;;;;0.20;0.20;;;21.80;75.30;;;;;;5011714;28;20042;-70
2023/07/10 10:26:39;;;;;;;0.00;0.00;;;21.90;75.50;;;;;;5014547;28;20510;-66
2023/07/10 10:29:22;;;;;;;0.00;0.00;;;21.90;75.30;;;;;;5015630;28;20073;-71
2023/07/10 10:32:16;;;;;;;0.00;0.00;;;22.00;75.50;;;;;;5013736;28;20454;-75
2023/07/10 10:34:46;;;;;;;0.10;0.10;;;22.00;75.70;;;;;;4982621;28;20060;-75
2023/07/10 10:37:37;;;;;;;0.00;0.00;;;22.10;75.50;;;;;;5013823;28;20048;-71
2023/07/10 10:40:25;;;;;;;0.10;0.10;;;22.10;74.90;;;;;;5014533;28;20141;-70
2023/07/10 10:43:33;;;;;;;0.90;0.80;;;22.20;74.00;;;;;;5015643;28;20041;-72
2023/07/10 10:46:20;;;;;;;0.00;0.00;;;22.20;73.30;;;;;;4980158;28;20120;-68
2023/07/10 10:48:56;;;;;;;0.00;0.00;;;22.10;72.20;;;;;;4996871;28;20137;-69
2023/07/10 10:51:43;;;;;;;0.00;0.00;;;22.00;73.00;;;;;;5013388;28;20183;-72
2023/07/10 10:54:27;;;;;;;0.00;0.00;;;22.00;73.20;;;;;;5013097;28;20424;-72
2023/07/10 10:57:14;;;;;;;0.00;0.00;;;22.00;73.10;;;;;;4998995;28;20041;-74
2023/07/10 11:00:05;;;;;;;6.30;1.35;;;22.10;71.60;;;;;;4993775;28;20122;-71
2023/07/10 11:02:47;;;;;;;0.00;0.00;;;22.20;72.60;;;;;;4992002;28;20058;-70
2023/07/10 11:05:17;;;;;;;0.00;0.00;;;22.30;71.30;;;;;;4994853;28;20046;-69
2023/07/10 11:07:48;;;;;;;0.08;0.08;;;22.40;70.10;;;;;;5013519;28;20560;-71
2023/07/10 11:10:22;;;;;;;0.00;0.00;;;22.50;71.00;;;;;;5013443;28;20044;-77
2023/07/10 11:12:47;;;;;;;0.10;0.10;;;22.50;70.90;;;;;;5002870;28;20084;-71
2023/07/10 11:15:22;;;;;;;0.00;0.00;;;22.60;70.00;;;;;;5020663;28;20068;-71
2023/07/10 11:17:51;;;;;;;0.08;0.08;;;22.70;69.80;;;;;;5009562;28;20057;-71
2023/07/10 11:20:18;;;;;;;0.57;0.57;;;22.60;67.60;;;;;;5016968;28;20048;-70
2023/07/10 11:22:55;;;;;;;0.00;0.00;;;22.60;66.80;;;;;;5019806;28;20048;-70
2023/07/10 11:25:41;;;;;;;0.00;0.00;;;22.50;66.00;;;;;;4985453;28;20063;-69
2023/07/10 11:28:28;;;;;;;0.00;0.00;;;22.40;67.00;;;;;;5001086;28;20042;-72
2023/07/10 11:31:24;;;;;;;0.10;0.10;;;22.40;66.90;;;;;;5019293;28;20038;-72
2023/07/10 11:34:05;;;;;;;0.00;0.00;;;22.40;66.90;;;;;;5018127;28;20060;-72
2023/07/10 11:36:33;;;;;;;0.10;0.10;;;22.40;67.60;;;;;;5019706;28;20037;-75
2023/07/10 11:39:06;;;;;;;3.20;0.55;;;22.50;66.50;;;;;;5002408;28;20060;-72
2023/07/10 11:41:42;;;;;;;2.22;0.90;;;22.60;68.00;;;;;;5019257;28;20160;-78
2023/07/10 11:44:11;;;;;;;0.00;0.00;;;22.60;66.90;;;;;;5019591;28;20052;-72
2023/07/10 11:46:53;;;;;;;0.00;0.00;;;22.50;63.40;;;;;;5014764;28;20045;-70
2023/07/10 11:49:19;;;;;;;0.00;0.00;;;22.60;64.00;;;;;;5019012;28;20512;-70
2023/07/10 11:52:10;;;;;;;0.00;0.00;;;22.60;60.80;;;;;;5017456;28;20049;-69
2023/07/10 11:54:36;;;;;;;;;;;22.50;59.10;;;;;;5000898;28;20172;-70
2023/07/10 11:57:05;;;;;;;0.08;0.08;;;22.50;60.90;;;;;;5018709;28;20020;-72
2023/07/10 11:59:30;;;;;;;0.00;0.00;;;22.60;60.90;;;;;;5000946;28;20062;-72
2023/07/10 12:01:56;;;;;;;0.00;0.00;;;22.60;61.00;;;;;;5001381;28;20042;-73
2023/07/10 12:04:25;;;;;;;0.22;0.22;;;22.80;61.70;;;;;;5020145;28;20132;-73
2023/07/10 12:06:51;;;;;;;0.20;0.20;;;23.00;62.00;;;;;;5018174;28;20081;-70
2023/07/10 12:09:16;;;;;;;0.00;0.00;;;23.10;60.20;;;;;;5016049;28;20077;-70
2023/07/10 12:11:45;;;;;;;0.00;0.00;;;23.10;58.60;;;;;;5013831;28;20057;-70
2023/07/10 12:14:14;;;;;;;0.00;0.00;;;23.10;56.80;;;;;;5010955;28;20038;-70
2023/07/10 12:16:58;;;;;;;0.17;0.17;;;23.10;56.60;;;;;;5016117;28;20065;-70
2023/07/10 12:19:32;;;;;;;0.10;0.10;;;23.10;55.30;;;;;;5019126;28;20045;-70
2023/07/10 12:22:00;;;;;;;0.00;0.00;;;23.10;57.20;;;;;;5018747;28;20128;-70
2023/07/10 12:24:26;;;;;;;0.03;0.03;;;23.20;57.30;;;;;;5009317;28;20554;-70
2023/07/10 12:26:58;;;;;;;0.00;0.00;;;23.20;57.60;;;;;;5014203;28;20053;-70
2023/07/10 12:29:24;;;;;;;0.00;0.00;;;23.10;58.10;;;;;;5017078;28;20494;-70
2023/07/10 12:31:50;;;;;;;0.00;0.00;;;23.10;59.00;;;;;;5014747;28;20102;-70
2023/07/10 12:34:24;;;;;;;0.00;0.00;;;23.10;57.60;;;;;;5018807;28;20041;-69
2023/07/10 12:36:52;;;;;;;0.00;0.00;;;23.30;59.20;;;;;;5018671;28;20046;-70
2023/07/10 12:39:18;;;;;;;0.98;0.63;;;23.40;57.40;;;;;;5017162;28;20457;-70
2023/07/10 12:41:45;;;;;;;0.00;0.00;;;23.30;55.30;;;;;;4984411;28;20128;-70
2023/07/10 12:44:20;;;;;;;0.00;0.00;;;23.30;57.00;;;;;;5018314;28;20038;-70
2023/07/10 12:46:46;;;;;;;2.45;0.40;;;23.50;58.00;;;;;;5015839;28;20057;-69
2023/07/10 12:49:14;;;;;;;0.00;0.00;;;23.60;58.00;;;;;;5017860;28;20676;-68
2023/07/10 12:51:43;;;;;;;0.00;0.00;;;23.60;54.90;;;;;;5016575;28;20049;-69
2023/07/10 12:54:32;;;;;;;0.00;0.00;;;23.80;55.30;;;;;;5015601;28;20044;-68
2023/07/10 12:56:58;;;;;;;0.00;0.00;;;23.80;55.50;;;;;;5016317;28;20070;-68
2023/07/10 12:59:29;;;;;;;0.00;0.00;;;23.80;53.70;;;;;;5015512;28;20137;-69
2023/07/10 13:02:04;;;;;;;0.00;0.00;;;23.70;53.20;;;;;;5015657;28;20433;-69